createdAt,value
2017-09-06T00:00:35.306Z,1008.29
2017-09-06T00:01:35.287Z,1008.27
2017-09-06T00:02:35.270Z,1008.27
2017-09-06T00:03:35.249Z,1008.3
2017-09-06T00:04:35.228Z,1008.29
2017-09-06T00:05:35.209Z,1008.2
2017-09-06T00:06:35.190Z,1008.23
2017-09-06T00:07:35.170Z,1008.19
2017-09-06T00:08:35.159Z,1008.24
2017-09-06T00:09:35.128Z,1008.24
2017-09-06T00:10:35.110Z,1008.25
2017-09-06T00:11:35.091Z,1008.26
2017-09-06T00:12:35.071Z,1008.23
2017-09-06T00:13:35.051Z,1008.22
2017-09-06T00:14:35.032Z,1008.19
2017-09-06T00:15:35.010Z,1008.19
2017-09-06T00:16:34.991Z,1008.26
2017-09-06T00:17:34.974Z,1008.24
2017-09-06T00:18:34.950Z,1008.23
2017-09-06T00:19:34.933Z,1008.22
2017-09-06T00:20:34.916Z,1008.23
2017-09-06T00:21:34.891Z,1008.19
2017-09-06T00:22:34.872Z,1008.23
2017-09-06T00:23:34.902Z,1008.18
2017-09-06T00:24:34.830Z,1008.16
2017-09-06T00:25:34.813Z,1008.12
2017-09-06T00:26:34.793Z,1008.13
2017-09-06T00:27:34.774Z,1008.13
2017-09-06T00:28:34.754Z,1008.13
2017-09-06T00:29:34.733Z,1008.08
2017-09-06T00:30:34.712Z,1008.1
2017-09-06T00:31:34.695Z,1008.09
2017-09-06T00:32:34.676Z,1008.12
2017-09-06T00:33:34.704Z,1008.12
2017-09-06T00:34:34.633Z,1008.09
2017-09-06T00:35:34.616Z,1008.06
2017-09-06T00:36:34.594Z,1008.04
2017-09-06T00:37:34.573Z,1008.02
2017-09-06T00:38:34.554Z,1007.99
2017-09-06T00:39:34.535Z,1007.95
2017-09-06T00:40:34.513Z,1007.96
2017-09-06T00:41:34.495Z,1007.94
2017-09-06T00:42:34.478Z,1007.93
2017-09-06T00:43:34.456Z,1007.93
2017-09-06T00:44:34.433Z,1007.83
2017-09-06T00:45:34.419Z,1007.89
2017-09-06T00:46:34.396Z,1007.9
2017-09-06T00:47:34.376Z,1007.9
2017-09-06T00:48:34.358Z,1007.91
2017-09-06T00:49:34.343Z,1007.88
2017-09-06T00:50:34.316Z,1007.91
2017-09-06T00:51:34.297Z,1007.86
2017-09-06T00:52:34.277Z,1007.87
2017-09-06T00:53:34.258Z,1007.85
2017-09-06T00:54:34.247Z,1007.85
2017-09-06T00:55:34.222Z,1007.86
2017-09-06T00:56:34.198Z,1007.83
2017-09-06T00:57:34.183Z,1007.79
2017-09-06T00:58:34.164Z,1007.82
2017-09-06T00:59:34.140Z,1007.85
2017-09-06T01:00:34.119Z,1007.81
2017-09-06T01:01:34.104Z,1007.83
2017-09-06T01:02:34.081Z,1007.84
2017-09-06T01:03:34.111Z,1007.8
2017-09-06T01:04:34.041Z,1007.86
2017-09-06T01:05:34.020Z,1007.79
2017-09-06T01:06:34.005Z,1007.84
2017-09-06T01:07:33.983Z,1007.83
2017-09-06T01:08:33.963Z,1007.79
2017-09-06T01:09:33.941Z,1007.79
2017-09-06T01:10:33.921Z,1007.78
2017-09-06T01:11:33.906Z,1007.76
2017-09-06T01:12:34.183Z,1007.76
2017-09-06T01:13:33.862Z,1007.74
2017-09-06T01:14:33.843Z,1007.71
2017-09-06T01:15:33.824Z,1007.73
2017-09-06T01:16:33.802Z,1007.77
2017-09-06T01:17:33.782Z,1007.71
2017-09-06T01:18:33.766Z,1007.7
2017-09-06T01:19:33.744Z,1007.67
2017-09-06T01:20:33.723Z,1007.64
2017-09-06T01:21:33.704Z,1007.63
2017-09-06T01:22:33.684Z,1007.63
2017-09-06T01:23:33.712Z,1007.59
2017-09-06T01:24:33.644Z,1007.6
2017-09-06T01:25:33.627Z,1007.58
2017-09-06T01:26:33.658Z,1007.65
2017-09-06T01:27:33.584Z,1007.63
2017-09-06T01:28:33.566Z,1007.58
2017-09-06T01:29:33.543Z,1007.6
2017-09-06T01:30:33.525Z,1007.57
2017-09-06T01:31:33.506Z,1007.56
2017-09-06T01:32:33.487Z,1007.56
2017-09-06T01:33:33.463Z,1007.58
2017-09-06T01:34:33.448Z,1007.56
2017-09-06T01:35:33.429Z,1007.53
2017-09-06T01:36:33.408Z,1007.56
2017-09-06T01:37:33.391Z,1007.57
2017-09-06T01:38:33.371Z,1007.61
2017-09-06T01:39:33.349Z,1007.61
2017-09-06T01:40:33.329Z,1007.61
2017-09-06T01:41:33.311Z,1007.59
2017-09-06T01:42:33.289Z,1007.61
2017-09-06T01:43:33.272Z,1007.6
2017-09-06T01:44:33.250Z,1007.6
2017-09-06T01:45:33.234Z,1007.61
2017-09-06T01:46:33.210Z,1007.61
2017-09-06T01:47:33.189Z,1007.56
2017-09-06T01:48:33.170Z,1007.57
2017-09-06T01:49:33.151Z,1007.54
2017-09-06T01:50:33.129Z,1007.52
2017-09-06T01:51:33.111Z,1007.48
2017-09-06T01:52:33.089Z,1007.5
2017-09-06T01:53:33.069Z,1007.53
2017-09-06T01:54:33.053Z,1007.53
2017-09-06T01:55:33.031Z,1007.53
2017-09-06T01:56:33.024Z,1007.54
2017-09-06T01:57:32.990Z,1007.55
2017-09-06T01:58:32.972Z,1007.49
2017-09-06T01:59:32.954Z,1007.47
2017-09-06T02:00:32.936Z,1007.45
2017-09-06T02:01:32.911Z,1007.46
2017-09-06T02:02:32.896Z,1007.47
2017-09-06T02:03:32.871Z,1007.48
2017-09-06T02:04:32.851Z,1007.49
2017-09-06T02:05:32.830Z,1007.44
2017-09-06T02:06:32.811Z,1007.43
2017-09-06T02:07:32.793Z,1007.42
2017-09-06T02:08:32.774Z,1007.45
2017-09-06T02:09:32.754Z,1007.4
2017-09-06T02:10:32.732Z,1007.41
2017-09-06T02:11:32.718Z,1007.36
2017-09-06T02:12:32.697Z,1007.35
2017-09-06T02:13:32.673Z,1007.38
2017-09-06T02:14:32.652Z,1007.41
2017-09-06T02:15:32.637Z,1007.4
2017-09-06T02:16:32.615Z,1007.35
2017-09-06T02:17:32.593Z,1007.34
2017-09-06T02:18:32.573Z,1007.34
2017-09-06T02:19:32.552Z,1007.33
2017-09-06T02:20:32.533Z,1007.3
2017-09-06T02:21:32.513Z,1007.28
2017-09-06T02:22:32.498Z,1007.28
2017-09-06T02:23:32.477Z,1007.29
2017-09-06T02:24:32.454Z,1007.28
2017-09-06T02:25:32.437Z,1007.23
2017-09-06T02:26:32.418Z,1007.22
2017-09-06T02:27:32.392Z,1007.21
2017-09-06T02:28:32.373Z,1007.18
2017-09-06T02:29:32.356Z,1007.16
2017-09-06T02:30:32.335Z,1007.13
2017-09-06T02:31:32.312Z,1007.13
2017-09-06T02:32:32.294Z,1007.06
2017-09-06T02:33:32.275Z,1007.04
2017-09-06T02:34:32.253Z,1006.98
2017-09-06T02:35:32.244Z,1006.97
2017-09-06T02:36:32.215Z,1006.93
2017-09-06T02:37:32.195Z,1006.92
2017-09-06T02:38:32.173Z,1006.93
2017-09-06T02:39:32.159Z,1006.88
2017-09-06T02:40:32.134Z,1006.83
2017-09-06T02:41:32.113Z,1006.8
2017-09-06T02:42:32.098Z,1006.76
2017-09-06T02:43:32.072Z,1006.76
2017-09-06T02:44:32.053Z,1006.76
2017-09-06T02:45:32.032Z,1006.78
2017-09-06T02:46:32.014Z,1006.76
2017-09-06T02:47:31.993Z,1006.69
2017-09-06T02:48:31.972Z,1006.7
2017-09-06T02:49:31.953Z,1006.75
2017-09-06T02:50:31.934Z,1006.71
2017-09-06T02:51:31.915Z,1006.75
2017-09-06T02:52:31.944Z,1006.74
2017-09-06T02:53:31.873Z,1006.76
2017-09-06T02:54:31.855Z,1006.76
2017-09-06T02:55:31.832Z,1006.72
2017-09-06T02:56:31.814Z,1006.73
2017-09-06T02:57:31.795Z,1006.68
2017-09-06T02:58:31.774Z,1006.76
2017-09-06T02:59:31.751Z,1006.72
2017-09-06T03:00:31.732Z,1006.74
2017-09-06T03:01:31.715Z,1006.73
2017-09-06T03:02:31.692Z,1006.74
2017-09-06T03:03:31.670Z,1006.72
2017-09-06T03:04:31.651Z,1006.74
2017-09-06T03:05:31.628Z,1006.73
2017-09-06T03:06:31.611Z,1006.67
2017-09-06T03:07:31.591Z,1006.72
2017-09-06T03:08:31.626Z,1006.72
2017-09-06T03:09:31.551Z,1006.68
2017-09-06T03:10:31.528Z,1006.71
2017-09-06T03:11:31.511Z,1006.65
2017-09-06T03:12:31.491Z,1006.66
2017-09-06T03:13:31.474Z,1006.6
2017-09-06T03:14:31.449Z,1006.6
2017-09-06T03:15:31.436Z,1006.61
2017-09-06T03:16:31.410Z,1006.61
2017-09-06T03:17:31.387Z,1006.56
2017-09-06T03:18:31.368Z,1006.57
2017-09-06T03:19:31.349Z,1006.55
2017-09-06T03:20:31.329Z,1006.56
2017-09-06T03:21:31.308Z,1006.57
2017-09-06T03:22:31.287Z,1006.55
2017-09-06T03:23:31.270Z,1006.54
2017-09-06T03:24:31.247Z,1006.53
2017-09-06T03:25:31.226Z,1006.47
2017-09-06T03:26:31.206Z,1006.53
2017-09-06T03:27:31.185Z,1006.47
2017-09-06T03:28:31.166Z,1006.45
2017-09-06T03:29:31.145Z,1006.48
2017-09-06T03:30:31.126Z,1006.46
2017-09-06T03:31:31.108Z,1006.47
2017-09-06T03:32:31.085Z,1006.5
2017-09-06T03:33:31.064Z,1006.48
2017-09-06T03:34:31.093Z,1006.48
2017-09-06T03:35:31.026Z,1006.44
2017-09-06T03:36:31.004Z,1006.4
2017-09-06T03:37:30.983Z,1006.39
2017-09-06T03:38:30.967Z,1006.4
2017-09-06T03:39:30.944Z,1006.38
2017-09-06T03:40:30.923Z,1006.39
2017-09-06T03:41:30.902Z,1006.35
2017-09-06T03:42:30.884Z,1006.35
2017-09-06T03:43:30.862Z,1006.34
2017-09-06T03:44:30.842Z,1006.36
2017-09-06T03:45:30.821Z,1006.33
2017-09-06T03:46:30.802Z,1006.33
2017-09-06T03:47:30.781Z,1006.34
2017-09-06T03:48:30.765Z,1006.37
2017-09-06T03:49:30.743Z,1006.34
2017-09-06T03:50:30.724Z,1006.35
2017-09-06T03:51:30.699Z,1006.3
2017-09-06T03:52:30.682Z,1006.33
2017-09-06T03:53:30.661Z,1006.32
2017-09-06T03:54:30.641Z,1006.25
2017-09-06T03:55:30.619Z,1006.21
2017-09-06T03:56:30.599Z,1006.26
2017-09-06T03:57:30.580Z,1006.23
2017-09-06T03:58:30.559Z,1006.27
2017-09-06T03:59:30.538Z,1006.24
2017-09-06T04:00:30.520Z,1006.27
2017-09-06T04:01:30.497Z,1006.22
2017-09-06T04:02:30.487Z,1006.21
2017-09-06T04:03:30.460Z,1006.19
2017-09-06T04:04:30.438Z,1006.17
2017-09-06T04:05:30.417Z,1006.14
2017-09-06T04:06:30.398Z,1006.17
2017-09-06T04:07:30.379Z,1006.17
2017-09-06T04:08:30.357Z,1006.16
2017-09-06T04:09:30.336Z,1006.19
2017-09-06T04:10:30.317Z,1006.2
2017-09-06T04:11:30.298Z,1006.2
2017-09-06T04:12:30.278Z,1006.15
2017-09-06T04:13:30.257Z,1006.11
2017-09-06T04:14:30.236Z,1006.13
2017-09-06T04:15:30.216Z,1006.13
2017-09-06T04:16:30.191Z,1006.1
2017-09-06T04:17:30.176Z,1006.1
2017-09-06T04:18:30.155Z,1006.05
2017-09-06T04:19:30.136Z,1006.07
2017-09-06T04:20:30.115Z,1006.06
2017-09-06T04:21:30.100Z,1006.11
2017-09-06T04:22:30.076Z,1006.09
2017-09-06T04:23:30.055Z,1005.99
2017-09-06T04:24:30.038Z,1006.05
2017-09-06T04:25:30.015Z,1006.01
2017-09-06T04:26:29.996Z,1006.03
2017-09-06T04:27:29.974Z,1006.03
2017-09-06T04:28:29.953Z,1005.98
2017-09-06T04:29:29.935Z,1005.9
2017-09-06T04:30:29.915Z,1005.94
2017-09-06T04:31:29.893Z,1005.98
2017-09-06T04:32:29.874Z,1005.99
2017-09-06T04:33:29.853Z,1005.94
2017-09-06T04:34:29.833Z,1005.97
2017-09-06T04:35:29.815Z,1005.97
2017-09-06T04:36:29.795Z,1006.01
2017-09-06T04:37:29.776Z,1006.01
2017-09-06T04:38:29.751Z,1005.99
2017-09-06T04:39:29.735Z,1006.02
2017-09-06T04:40:29.712Z,1005.97
2017-09-06T04:41:29.696Z,1005.94
2017-09-06T04:42:29.726Z,1005.96
2017-09-06T04:43:29.655Z,1005.96
2017-09-06T04:44:29.682Z,1005.94
2017-09-06T04:45:29.614Z,1005.88
2017-09-06T04:46:29.593Z,1005.87
2017-09-06T04:47:29.571Z,1005.83
2017-09-06T04:48:29.553Z,1005.82
2017-09-06T04:49:29.532Z,1005.88
2017-09-06T04:50:29.510Z,1005.92
2017-09-06T04:51:29.490Z,1005.89
2017-09-06T04:52:29.470Z,1005.85
2017-09-06T04:53:29.451Z,1005.91
2017-09-06T04:54:29.436Z,1005.9
2017-09-06T04:55:29.410Z,1005.88
2017-09-06T04:56:29.389Z,1005.85
2017-09-06T04:57:29.373Z,1005.89
2017-09-06T04:58:29.351Z,1005.86
2017-09-06T04:59:29.330Z,1005.8
2017-09-06T05:00:29.309Z,1005.8
2017-09-06T05:01:29.291Z,1005.83
2017-09-06T05:02:29.267Z,1005.83
2017-09-06T05:03:29.247Z,1005.79
2017-09-06T05:04:29.227Z,1005.81
2017-09-06T05:05:29.210Z,1005.79
2017-09-06T05:06:29.187Z,1005.77
2017-09-06T05:07:29.165Z,1005.78
2017-09-06T05:08:29.145Z,1005.78
2017-09-06T05:09:29.127Z,1005.81
2017-09-06T05:10:29.106Z,1005.8
2017-09-06T05:11:29.085Z,1005.81
2017-09-06T05:12:29.066Z,1005.74
2017-09-06T05:13:29.044Z,1005.77
2017-09-06T05:14:29.025Z,1005.75
2017-09-06T05:15:29.004Z,1005.76
2017-09-06T05:16:28.989Z,1005.77
2017-09-06T05:17:28.962Z,1005.73
2017-09-06T05:18:28.941Z,1005.75
2017-09-06T05:19:28.919Z,1005.77
2017-09-06T05:20:28.906Z,1005.75
2017-09-06T05:21:28.883Z,1005.73
2017-09-06T05:22:28.863Z,1005.72
2017-09-06T05:23:28.842Z,1005.74
2017-09-06T05:24:28.821Z,1005.73
2017-09-06T05:25:28.808Z,1005.75
2017-09-06T05:26:28.781Z,1005.77
2017-09-06T05:27:28.763Z,1005.76
2017-09-06T05:28:28.738Z,1005.73
2017-09-06T05:29:28.720Z,1005.72
2017-09-06T05:30:28.700Z,1005.69
2017-09-06T05:31:28.680Z,1005.69
2017-09-06T05:32:28.663Z,1005.65
2017-09-06T05:33:28.638Z,1005.64
2017-09-06T05:34:28.618Z,1005.64
2017-09-06T05:35:28.600Z,1005.63
2017-09-06T05:36:28.578Z,1005.62
2017-09-06T05:37:28.558Z,1005.63
2017-09-06T05:38:28.542Z,1005.65
2017-09-06T05:39:28.522Z,1005.61
2017-09-06T05:40:28.497Z,1005.65
2017-09-06T05:41:28.477Z,1005.66
2017-09-06T05:42:28.461Z,1005.61
2017-09-06T05:43:28.436Z,1005.7
2017-09-06T05:44:28.415Z,1005.66
2017-09-06T05:45:28.397Z,1005.64
2017-09-06T05:46:28.376Z,1005.68
2017-09-06T05:47:28.359Z,1005.68
2017-09-06T05:48:28.334Z,1005.68
2017-09-06T05:49:28.318Z,1005.67
2017-09-06T05:50:28.345Z,1005.68
2017-09-06T05:51:28.274Z,1005.71
2017-09-06T05:52:28.253Z,1005.76
2017-09-06T05:53:28.237Z,1005.71
2017-09-06T05:54:28.215Z,1005.76
2017-09-06T05:55:28.193Z,1005.72
2017-09-06T05:56:28.174Z,1005.77
2017-09-06T05:57:28.153Z,1005.74
2017-09-06T05:58:28.132Z,1005.75
2017-09-06T05:59:28.112Z,1005.78
2017-09-06T06:00:28.093Z,1005.78
2017-09-06T06:01:28.074Z,1005.83
2017-09-06T06:02:28.054Z,1005.76
2017-09-06T06:03:28.032Z,1005.75
2017-09-06T06:04:28.013Z,1005.74
2017-09-06T06:05:27.993Z,1005.75
2017-09-06T06:06:27.974Z,1005.72
2017-09-06T06:07:27.955Z,1005.78
2017-09-06T06:08:27.931Z,1005.76
2017-09-06T06:09:27.914Z,1005.71
2017-09-06T06:10:27.891Z,1005.7
2017-09-06T06:11:27.872Z,1005.7
2017-09-06T06:12:27.853Z,1005.72
2017-09-06T06:13:27.831Z,1005.71
2017-09-06T06:14:27.812Z,1005.62
2017-09-06T06:15:27.789Z,1005.65
2017-09-06T06:16:27.823Z,1005.67
2017-09-06T06:17:27.753Z,1005.65
2017-09-06T06:18:27.733Z,1005.67
2017-09-06T06:19:27.714Z,1005.63
2017-09-06T06:20:27.693Z,1005.64
2017-09-06T06:21:27.672Z,1005.64
2017-09-06T06:22:27.656Z,1005.65
2017-09-06T06:23:27.635Z,1005.67
2017-09-06T06:24:27.617Z,1005.68
2017-09-06T06:25:27.595Z,1005.68
2017-09-06T06:26:27.571Z,1005.65
2017-09-06T06:27:27.554Z,1005.7
2017-09-06T06:28:27.535Z,1005.69
2017-09-06T06:29:27.516Z,1005.72
2017-09-06T06:30:27.501Z,1005.68
2017-09-06T06:31:27.475Z,1005.67
2017-09-06T06:32:27.460Z,1005.66
2017-09-06T06:33:27.443Z,1005.68
2017-09-06T06:34:27.422Z,1005.67
2017-09-06T06:35:27.397Z,1005.67
2017-09-06T06:36:27.385Z,1005.7
2017-09-06T06:37:27.356Z,1005.7
2017-09-06T06:38:27.339Z,1005.63
2017-09-06T06:39:27.321Z,1005.62
2017-09-06T06:40:27.299Z,1005.63
2017-09-06T06:41:27.284Z,1005.62
2017-09-06T06:42:27.258Z,1005.65
2017-09-06T06:43:27.240Z,1005.61
2017-09-06T06:44:27.223Z,1005.6
2017-09-06T06:45:27.199Z,1005.59
2017-09-06T06:46:27.177Z,1005.63
2017-09-06T06:47:27.162Z,1005.62
2017-09-06T06:48:27.140Z,1005.67
2017-09-06T06:49:27.117Z,1005.67
2017-09-06T06:50:27.098Z,1005.63
2017-09-06T06:51:27.078Z,1005.6
2017-09-06T06:52:27.061Z,1005.65
2017-09-06T06:53:27.037Z,1005.69
2017-09-06T06:54:27.018Z,1005.62
2017-09-06T06:55:26.998Z,1005.65
2017-09-06T06:56:26.982Z,1005.68
2017-09-06T06:57:26.960Z,1005.68
2017-09-06T06:58:26.944Z,1005.68
2017-09-06T06:59:26.923Z,1005.66
2017-09-06T07:00:26.899Z,1005.67
2017-09-06T07:01:26.877Z,1005.69
2017-09-06T07:02:26.858Z,1005.65
2017-09-06T07:03:26.837Z,1005.67
2017-09-06T07:04:26.817Z,1005.66
2017-09-06T07:05:26.801Z,1005.63
2017-09-06T07:06:26.780Z,1005.64
2017-09-06T07:07:26.761Z,1005.59
2017-09-06T07:08:26.735Z,1005.68
2017-09-06T07:09:26.721Z,1005.67
2017-09-06T07:10:26.699Z,1005.67
2017-09-06T07:11:26.684Z,1005.69
2017-09-06T07:12:26.661Z,1005.65
2017-09-06T07:13:26.644Z,1005.67
2017-09-06T07:14:26.620Z,1005.66
2017-09-06T07:15:26.597Z,1005.66
2017-09-06T07:16:26.578Z,1005.64
2017-09-06T07:17:26.560Z,1005.73
2017-09-06T07:18:26.538Z,1005.73
2017-09-06T07:19:26.520Z,1005.69
2017-09-06T07:20:26.502Z,1005.68
2017-09-06T07:21:26.483Z,1005.7
2017-09-06T07:22:26.458Z,1005.7
2017-09-06T07:23:26.444Z,1005.68
2017-09-06T07:24:26.422Z,1005.7
2017-09-06T07:25:26.400Z,1005.61
2017-09-06T07:26:26.385Z,1005.7
2017-09-06T07:27:26.362Z,1005.69
2017-09-06T07:28:26.345Z,1005.73
2017-09-06T07:29:26.325Z,1005.73
2017-09-06T07:30:26.354Z,1005.72
2017-09-06T07:31:26.280Z,1005.71
2017-09-06T07:32:26.270Z,1005.66
2017-09-06T07:33:26.244Z,1005.69
2017-09-06T07:34:26.234Z,1005.69
2017-09-06T07:35:26.202Z,1005.7
2017-09-06T07:36:26.183Z,1005.62
2017-09-06T07:37:26.168Z,1005.64
2017-09-06T07:38:26.151Z,1005.59
2017-09-06T07:39:26.126Z,1005.64
2017-09-06T07:40:26.108Z,1005.61
2017-09-06T07:41:26.082Z,1005.63
2017-09-06T07:42:26.069Z,1005.63
2017-09-06T07:43:26.047Z,1005.62
2017-09-06T07:44:26.027Z,1005.66
2017-09-06T07:45:26.006Z,1005.66
2017-09-06T07:46:25.988Z,1005.66
2017-09-06T07:47:25.971Z,1005.64
2017-09-06T07:48:25.953Z,1005.64
2017-09-06T07:49:25.936Z,1005.63
2017-09-06T07:50:25.917Z,1005.61
2017-09-06T07:51:25.900Z,1005.7
2017-09-06T07:52:25.876Z,1005.76
2017-09-06T07:53:25.858Z,1005.75
2017-09-06T07:54:25.838Z,1005.75
2017-09-06T07:55:25.818Z,1005.8
2017-09-06T07:56:25.804Z,1005.85
2017-09-06T07:57:25.777Z,1005.8
2017-09-06T07:58:25.761Z,1005.83
2017-09-06T07:59:25.734Z,1005.82
2017-09-06T08:00:25.715Z,1005.88
2017-09-06T08:01:25.697Z,1005.89
2017-09-06T08:02:25.678Z,1005.87
2017-09-06T08:03:25.660Z,1005.87
2017-09-06T08:04:25.840Z,1005.87
2017-09-06T08:05:25.617Z,1005.93
2017-09-06T08:06:25.599Z,1005.95
2017-09-06T08:07:25.579Z,1005.94
2017-09-06T08:08:25.559Z,1005.98
2017-09-06T08:09:25.537Z,1006.05
2017-09-06T08:10:25.566Z,1006.02
2017-09-06T08:11:25.497Z,1006.05
2017-09-06T08:12:25.483Z,1006.08
2017-09-06T08:13:25.462Z,1006.11
2017-09-06T08:14:25.439Z,1006.1
2017-09-06T08:15:25.421Z,1006.11
2017-09-06T08:16:25.398Z,1006.1
2017-09-06T08:17:25.377Z,1006.1
2017-09-06T08:18:25.357Z,1006.12
2017-09-06T08:19:25.335Z,1006.14
2017-09-06T08:20:25.317Z,1006.14
2017-09-06T08:21:25.294Z,1006.15
2017-09-06T08:22:25.272Z,1006.14
2017-09-06T08:23:25.252Z,1006.21
2017-09-06T08:24:25.233Z,1006.23
2017-09-06T08:25:25.313Z,1006.27
2017-09-06T08:26:25.192Z,1006.28
2017-09-06T08:27:25.322Z,1006.28
2017-09-06T08:28:25.153Z,1006.32
2017-09-06T08:29:25.135Z,1006.4
2017-09-06T08:30:25.113Z,1006.35
2017-09-06T08:31:25.094Z,1006.39
2017-09-06T08:32:25.070Z,1006.28
2017-09-06T08:33:25.101Z,1006.44
2017-09-06T08:34:25.030Z,1006.33
2017-09-06T08:35:25.013Z,1006.38
2017-09-06T08:36:24.990Z,1006.45
2017-09-06T08:37:25.174Z,1006.43
2017-09-06T08:38:24.949Z,1006.45
2017-09-06T08:39:24.928Z,1006.41
2017-09-06T08:40:24.908Z,1006.46
2017-09-06T08:41:24.885Z,1006.51
2017-09-06T08:42:24.871Z,1006.61
2017-09-06T08:43:24.850Z,1006.51
2017-09-06T08:44:24.828Z,1006.48
2017-09-06T08:45:24.804Z,1006.59
2017-09-06T08:46:24.786Z,1006.69
2017-09-06T08:47:24.769Z,1006.72
2017-09-06T08:48:24.744Z,1006.7
2017-09-06T08:49:24.725Z,1006.71
2017-09-06T08:50:24.706Z,1006.76
2017-09-06T08:51:24.791Z,1006.73
2017-09-06T08:52:24.662Z,1006.79
2017-09-06T08:53:24.645Z,1006.8
2017-09-06T08:54:24.624Z,1006.77
2017-09-06T08:55:24.602Z,1006.84
2017-09-06T08:56:24.579Z,1006.81
2017-09-06T08:57:24.656Z,1006.9
2017-09-06T08:58:24.540Z,1006.91
2017-09-06T08:59:24.524Z,1006.9
2017-09-06T09:00:24.495Z,1006.82
2017-09-06T09:01:24.475Z,1006.94
2017-09-06T09:02:24.458Z,1006.91
2017-09-06T09:03:24.435Z,1006.91
2017-09-06T09:04:24.463Z,1006.95
2017-09-06T09:05:24.390Z,1007.01
2017-09-06T09:06:24.375Z,1007.02
2017-09-06T09:07:24.351Z,1007.09
2017-09-06T09:08:24.335Z,1007.08
2017-09-06T09:09:24.414Z,1007.02
2017-09-06T09:10:24.294Z,1007.06
2017-09-06T09:11:24.269Z,1007.11
2017-09-06T09:12:24.251Z,1007.12
2017-09-06T09:13:24.233Z,1007.12
2017-09-06T09:14:24.214Z,1007.12
2017-09-06T09:15:24.196Z,1007.19
2017-09-06T09:16:24.169Z,1007.11
2017-09-06T09:17:24.145Z,1007.21
2017-09-06T09:18:24.175Z,1007.22
2017-09-06T09:19:24.107Z,1007.2
2017-09-06T09:20:24.088Z,1007.3
2017-09-06T09:21:24.064Z,1007.27
2017-09-06T09:22:24.245Z,1007.29
2017-09-06T09:23:24.025Z,1007.39
2017-09-06T09:24:24.005Z,1007.35
2017-09-06T09:25:24.138Z,1007.35
2017-09-06T09:26:23.965Z,1007.49
2017-09-06T09:27:23.944Z,1007.47
2017-09-06T09:28:23.924Z,1007.52
2017-09-06T09:29:23.903Z,1007.55
2017-09-06T09:30:23.884Z,1007.45
2017-09-06T09:31:23.963Z,1007.54
2017-09-06T09:32:23.841Z,1007.45
2017-09-06T09:33:23.820Z,1007.51
2017-09-06T09:34:24.003Z,1007.62
2017-09-06T09:35:23.785Z,1007.54
2017-09-06T09:36:23.757Z,1007.52
2017-09-06T09:37:23.735Z,1007.6
2017-09-06T09:38:23.872Z,1007.56
2017-09-06T09:39:23.701Z,1007.5
2017-09-06T09:40:23.675Z,1007.59
2017-09-06T09:41:23.658Z,1007.52
2017-09-06T09:42:23.832Z,1007.57
2017-09-06T09:43:23.615Z,1007.64
2017-09-06T09:44:23.598Z,1007.61
2017-09-06T09:45:23.577Z,1007.69
2017-09-06T09:46:23.552Z,1007.65
2017-09-06T09:47:23.534Z,1007.6
2017-09-06T09:48:23.512Z,1007.65
2017-09-06T09:49:23.488Z,1007.63
2017-09-06T09:50:23.472Z,1007.69
2017-09-06T09:51:23.550Z,1007.65
2017-09-06T09:52:23.430Z,1007.65
2017-09-06T09:53:23.408Z,1007.72
2017-09-06T09:54:23.589Z,1007.62
2017-09-06T09:55:23.374Z,1007.66
2017-09-06T09:56:23.449Z,1007.69
2017-09-06T09:57:23.329Z,1007.68
2017-09-06T09:58:23.307Z,1007.68
2017-09-06T09:59:23.294Z,1007.67
2017-09-06T10:00:23.273Z,1007.72
2017-09-06T10:01:23.250Z,1007.64
2017-09-06T10:02:23.231Z,1007.64
2017-09-06T10:03:23.214Z,1007.65
2017-09-06T10:04:23.192Z,1007.7
2017-09-06T10:05:23.173Z,1007.74
2017-09-06T10:06:23.152Z,1007.71
2017-09-06T10:07:23.132Z,1007.69
2017-09-06T10:08:23.109Z,1007.77
2017-09-06T10:09:23.092Z,1007.72
2017-09-06T10:10:23.072Z,1007.74
2017-09-06T10:11:23.056Z,1007.77
2017-09-06T10:12:23.040Z,1007.8
2017-09-06T10:13:23.014Z,1007.73
2017-09-06T10:14:22.992Z,1007.76
2017-09-06T10:15:22.973Z,1007.75
2017-09-06T10:16:22.954Z,1007.77
2017-09-06T10:17:22.937Z,1007.82
2017-09-06T10:18:22.917Z,1007.77
2017-09-06T10:19:22.896Z,1007.77
2017-09-06T10:20:22.877Z,1007.8
2017-09-06T10:21:22.855Z,1007.77
2017-09-06T10:22:22.840Z,1007.78
2017-09-06T10:23:23.019Z,1007.78
2017-09-06T10:24:22.800Z,1007.78
2017-09-06T10:25:22.781Z,1007.76
2017-09-06T10:26:22.762Z,1007.68
2017-09-06T10:27:22.742Z,1007.8
2017-09-06T10:28:22.875Z,1007.75
2017-09-06T10:29:22.702Z,1007.75
2017-09-06T10:30:22.739Z,1007.82
2017-09-06T10:31:22.816Z,1007.79
2017-09-06T10:32:22.744Z,1007.77
2017-09-06T10:33:22.625Z,1007.66
2017-09-06T10:34:22.608Z,1007.77
2017-09-06T10:35:22.589Z,1007.73
2017-09-06T10:36:22.567Z,1007.82
2017-09-06T10:37:22.550Z,1007.76
2017-09-06T10:38:22.529Z,1007.8
2017-09-06T10:39:22.510Z,1007.71
2017-09-06T10:40:22.495Z,1007.75
2017-09-06T10:41:22.475Z,1007.76
2017-09-06T10:42:22.452Z,1007.68
2017-09-06T10:43:22.436Z,1007.76
2017-09-06T10:44:22.413Z,1007.78
2017-09-06T10:45:22.394Z,1007.77
2017-09-06T10:46:22.377Z,1007.8
2017-09-06T10:47:22.354Z,1007.8
2017-09-06T10:48:22.335Z,1007.77
2017-09-06T10:49:22.316Z,1007.79
2017-09-06T10:50:22.294Z,1007.81
2017-09-06T10:51:22.277Z,1007.86
2017-09-06T10:52:22.258Z,1007.87
2017-09-06T10:53:22.238Z,1007.86
2017-09-06T10:54:22.217Z,1007.83
2017-09-06T10:55:22.201Z,1007.82
2017-09-06T10:56:22.179Z,1007.78
2017-09-06T10:57:22.173Z,1007.81
2017-09-06T10:58:22.141Z,1007.73
2017-09-06T10:59:22.121Z,1007.79
2017-09-06T11:00:22.107Z,1007.76
2017-09-06T11:01:22.083Z,1007.79
2017-09-06T11:02:22.064Z,1007.74
2017-09-06T11:03:22.045Z,1007.8
2017-09-06T11:04:22.026Z,1007.76
2017-09-06T11:05:22.009Z,1007.72
2017-09-06T11:06:21.987Z,1007.77
2017-09-06T11:07:21.973Z,1007.82
2017-09-06T11:08:21.949Z,1007.81
2017-09-06T11:09:21.927Z,1007.78
2017-09-06T11:10:21.911Z,1007.78
2017-09-06T11:11:21.890Z,1007.78
2017-09-06T11:12:21.870Z,1007.81
2017-09-06T11:13:22.054Z,1007.82
2017-09-06T11:14:21.937Z,1007.79
2017-09-06T11:15:21.815Z,1007.79
2017-09-06T11:16:21.796Z,1007.84
2017-09-06T11:17:21.775Z,1007.81
2017-09-06T11:18:21.856Z,1007.83
2017-09-06T11:19:21.737Z,1007.83
2017-09-06T11:20:21.721Z,1007.81
2017-09-06T11:21:21.703Z,1007.87
2017-09-06T11:22:21.692Z,1007.84
2017-09-06T11:23:21.662Z,1007.85
2017-09-06T11:24:21.643Z,1007.84
2017-09-06T11:25:21.624Z,1007.87
2017-09-06T11:26:21.607Z,1007.92
2017-09-06T11:27:21.589Z,1007.87
2017-09-06T11:28:21.572Z,1007.91
2017-09-06T11:29:21.549Z,1007.89
2017-09-06T11:30:21.680Z,1007.95
2017-09-06T11:31:21.513Z,1007.93
2017-09-06T11:32:21.653Z,1007.9
2017-09-06T11:33:21.474Z,1007.9
2017-09-06T11:34:21.455Z,1007.93
2017-09-06T11:35:21.442Z,1007.91
2017-09-06T11:36:21.419Z,1007.94
2017-09-06T11:37:21.600Z,1007.93
2017-09-06T11:38:21.385Z,1007.9
2017-09-06T11:39:21.364Z,1007.93
2017-09-06T11:40:21.342Z,1007.96
2017-09-06T11:41:21.330Z,1007.94
2017-09-06T11:42:21.305Z,1007.99
2017-09-06T11:43:21.285Z,1007.96
2017-09-06T11:44:21.267Z,1007.95
2017-09-06T11:45:21.248Z,1007.98
2017-09-06T11:46:21.231Z,1007.99
2017-09-06T11:47:21.213Z,1008.11
2017-09-06T11:48:21.192Z,1008.03
2017-09-06T11:49:21.174Z,1008.12
2017-09-06T11:50:21.158Z,1008.01
2017-09-06T11:51:21.140Z,1008.06
2017-09-06T11:52:21.126Z,1008.01
2017-09-06T11:53:21.100Z,1008.08
2017-09-06T11:54:21.081Z,1007.98
2017-09-06T11:55:21.067Z,1008
2017-09-06T11:56:21.046Z,1007.99
2017-09-06T11:57:21.023Z,1007.99
2017-09-06T11:58:21.007Z,1008
2017-09-06T11:59:20.989Z,1007.96
2017-09-06T12:00:21.069Z,1007.98
2017-09-06T12:01:20.950Z,1007.95
2017-09-06T12:02:20.935Z,1008.01
2017-09-06T12:03:20.914Z,1008.02
2017-09-06T12:04:20.894Z,1007.98
2017-09-06T12:05:20.877Z,1008
2017-09-06T12:06:20.858Z,1007.97
2017-09-06T12:07:20.989Z,1007.97
2017-09-06T12:08:20.818Z,1008.02